ADDS TAF Board (Experimental) INFO Settings
IDs: Format: Expanded Condensed

KBOS - Boston/Logan Intl, MA, US

Issued at 1517 UTC 26 Jun 2016
Updated at: 1522 UTC 26 Jun 2016
Time1454Z 26/16Z 26/17Z 26/18Z 26/19Z 26/20Z 26/21Z 26/22Z 26/23Z 27/00Z 27/01Z 27/02Z 27/03Z 27/04Z
Type OBS PRVL PRVL PRVL PRVL PRVL PRVL PRVL PRVL PRVL PRVL PRVL PRVL PRVL
VIS 10 >6 >6 >6 >6 >6 >6 >6 >6 >6 >6 >6 >6 >6
CIG -- -- -- -- -- -- -- -- -- -- -- -- -- --
Cover SCT FEW FEW FEW FEW FEW FEW FEW FEW FEW FEW FEW FEW FEW
FltCat VFR VFR VFR VFR VFR VFR VFR VFR VFR VFR VFR VFR VFR VFR
WX -- -- -- -- -- -- -- -- -- -- -- -- -- --
WDir 130 130 130 130 130 130 130 130 170 170 170 170 170 170
WSpd 6 6 6 12 12 12 12 12 10 10 10 10 10 10
WGst -- -- -- -- -- -- -- -- -- -- -- -- -- --
R04/22
XWnd -6 -6 -6 -11 -11 -11 -11 -11 -5 -5 -5 -5 -5 -5
HWnd -2 -2 -2 -4 -4 -4 -4 -4 -9 -9 -9 -9 -9 -9
R09/27
XWnd -5 -5 -5 -10 -10 -10 -10 -10 -10 -10 -10 -10 -10 -10
HWnd 4 4 4 7 7 7 7 7 -1 -1 -1 -1 -1 -1
R14/32
XWnd -1 -1 -1 -1 -1 -1 -1 -1 -7 -7 -7 -7 -7 -7
HWnd 6 6 6 12 12 12 12 12 7 7 7 7 7 7
R15/33
XWnd 1 1 1 1 1 1 1 1 -6 -6 -6 -6 -6 -6
HWnd 6 6 6 12 12 12 12 12 8 8 8 8 8 8

NOTE: TEMPO conditions in [brackets]. Keep in mind TEMPO conditions might be better (lower impact) than prevailing conditions.

Raw TAF
KBOS 261517Z 2615/2718 13006KT P6SM FEW250
  FM261800 13012KT P6SM FEW200
  FM262300 17010KT P6SM FEW200
  FM270600 21007KT P6SM SCT150


Raw METAR
KBOS 261454Z 13006KT 10SM SCT250 25/13 A3020 RMK AO2 SLP226 T02500128 58008
KBOS 261354Z 13007KT 10SM SCT250 23/13 A3021 RMK AO2 SLP229 T02330133
KBOS 261254Z 14006KT 10SM FEW250 21/13 A3023 RMK AO2 SLP236 T02110133

METAR Board
Radar Display
Forecast Discussion

TAF Board Legend

Potential Impact
Threat None Slight Moderate High
Visibility (sm) ≥5.1 5.1>X≥3 3>X≥1 <1
Ceiling (100 ft) ≥30.1 30.1>X≥10 10>X≥5 <5
Wind Speed (kt) <10 10≤X<20 20≤X<30 ≥30
Wind Gust (kt) <15 15≤X<25 25≤X<35 ≥35
Weather No Wx Reported VCTS,-TS,-FZRA,SN TS,FZRA +TS,+FZRA,+SN